Time;durP1;ratioP1;P1;durP2;ratioP2;P2;SDS_P1;SDS_P2;PMS_P1;PMS_P2;Temp;Humidity;BMP_temperature;BMP_pressure;BME280_temperature;BME280_humidity;BME280_pressure;Samples;Min_cycle;Max_cycle;Signal;HPM_P1;HPM_P2
2022/06/28 00:00:25;;;;;;;9.38;6.28;;;;;;;12.32;100.00;102004.63;5049353;28;20044;-66
2022/06/28 00:02:51;;;;;;;10.85;6.05;;;;;;;12.20;100.00;102003.47;5050623;28;20048;-66
2022/06/28 00:05:17;;;;;;;8.57;6.03;;;;;;;12.27;100.00;102012.03;5014295;28;20040;-66
2022/06/28 00:07:43;;;;;;;10.48;6.50;;;;;;;12.13;100.00;102013.56;5050524;28;20993;-66
2022/06/28 00:10:11;;;;;;;9.93;5.60;;;;;;;12.07;100.00;102011.22;5049649;28;20044;-66
2022/06/28 00:12:37;;;;;;;7.88;5.70;;;;;;;12.14;100.00;102012.63;5051025;28;20059;-66
2022/06/28 00:17:50;;;;;;;9.65;5.78;;;;;;;12.21;100.00;101996.28;5030913;28;20032;-66
2022/06/28 00:20:15;;;;;;;9.93;6.43;;;;;;;12.23;100.00;101995.25;5030164;28;20028;-66
2022/06/28 00:22:41;;;;;;;14.80;8.20;;;;;;;12.24;100.00;101999.66;5031061;28;20114;-66
2022/06/28 00:25:07;;;;;;;13.48;9.00;;;;;;;12.25;100.00;102001.41;5047618;28;20118;-66
2022/06/28 00:27:33;;;;;;;11.30;7.25;;;;;;;12.09;100.00;102000.44;5049453;28;20466;-66
2022/06/28 00:29:58;;;;;;;11.70;6.75;;;;;;;12.03;100.00;101993.59;5049590;28;20044;-66
2022/06/28 00:32:24;;;;;;;12.68;8.23;;;;;;;12.10;100.00;101984.34;5049346;28;20035;-66
2022/06/28 00:34:50;;;;;;;12.18;9.18;;;;;;;12.13;100.00;101992.19;5031217;28;20056;-65
2022/06/28 00:37:16;;;;;;;16.33;9.27;;;;;;;12.12;100.00;101992.28;5048116;28;20039;-66
2022/06/28 00:39:41;;;;;;;19.95;11.02;;;;;;;12.13;100.00;101997.53;5049712;28;20106;-66
2022/06/28 00:42:10;;;;;;;18.50;10.95;;;;;;;12.15;100.00;101998.34;5048606;28;20041;-66
2022/06/28 00:44:37;;;;;;;13.35;11.00;;;;;;;12.22;100.00;101998.00;5030496;28;20036;-65
2022/06/28 00:47:03;;;;;;;8.73;7.50;;;;;;;12.12;100.00;101997.63;5064257;28;20514;-66
2022/06/28 00:49:29;;;;;;;10.02;8.05;;;;;;;12.16;100.00;101996.53;5030968;28;20122;-65
2022/06/28 00:51:57;;;;;;;10.88;9.07;;;;;;;11.95;100.00;101997.59;5049202;28;20119;-66
2022/06/28 00:54:23;;;;;;;8.95;7.32;;;;;;;12.01;100.00;102003.53;5048012;28;20109;-66
2022/06/28 00:56:49;;;;;;;10.98;7.50;;;;;;;12.09;100.00;102005.78;5048290;28;20036;-66
2022/06/28 00:59:14;;;;;;;13.85;9.20;;;;;;;12.09;100.00;102006.66;5029166;28;20069;-66
2022/06/28 01:01:40;;;;;;;124.90;12.00;;;;;;;11.80;100.00;102008.13;5047526;28;20102;-66
2022/06/28 01:04:07;;;;;;;25.38;7.97;;;;;;;11.61;100.00;102024.19;5062699;28;20032;-65
2022/06/28 01:06:33;;;;;;;11.23;7.05;;;;;;;11.54;100.00;102027.22;5030273;28;20106;-65
2022/06/28 01:08:59;;;;;;;10.05;7.00;;;;;;;11.62;100.00;102031.25;5029211;28;20094;-66
2022/06/28 01:11:28;;;;;;;8.30;6.47;;;;;;;11.64;100.00;102036.50;5047889;28;20044;-68
2022/06/28 01:13:59;;;;;;;11.65;8.38;;;;;;;11.67;100.00;102028.34;5030836;28;20043;-69
2022/06/28 01:16:29;;;;;;;14.98;7.95;;;;;;;11.63;100.00;102038.31;5029318;28;20028;-68
2022/06/28 01:19:06;;;;;;;19.05;7.93;;;;;;;11.56;100.00;102036.91;5029438;28;20624;-67
2022/06/28 01:21:36;;;;;;;13.00;8.65;;;;;;;11.60;100.00;102040.28;5029382;28;20143;-67
2022/06/28 01:24:04;;;;;;;16.33;9.43;;;;;;;11.67;100.00;102044.38;5029495;28;20036;-67
2022/06/28 01:26:39;;;;;;;11.75;8.77;;;;;;;11.70;100.00;102035.34;5028889;28;20059;-67
2022/06/28 01:29:06;;;;;;;13.60;10.20;;;;;;;11.72;100.00;102037.00;5047918;28;20185;-67
2022/06/28 01:31:37;;;;;;;14.10;9.75;;;;;;;11.73;100.00;102040.53;5031675;28;20029;-67
2022/06/28 01:34:03;;;;;;;33.80;10.63;;;;;;;11.59;100.00;102042.06;5063293;28;20044;-66
2022/06/28 01:36:29;;;;;;;17.65;9.15;;;;;;;11.46;100.00;102040.94;5049052;28;20483;-66
2022/06/28 01:38:57;;;;;;;12.75;8.35;;;;;;;11.47;100.00;102041.81;5014591;28;20033;-66
2022/06/28 01:41:34;;;;;;;13.60;8.27;;;;;;;11.55;100.00;102042.31;5030809;28;20044;-66
2022/06/28 01:44:13;;;;;;;12.13;9.25;;;;;;;11.68;100.00;102044.31;5030902;28;20866;-65
2022/06/28 01:46:51;;;;;;;11.90;9.45;;;;;;;11.59;100.00;102050.09;5031116;28;20068;-65
2022/06/28 01:49:19;;;;;;;15.63;8.57;;;;;;;11.53;100.00;102042.38;5030502;28;20812;-66
2022/06/28 01:51:45;;;;;;;9.70;7.07;;;;;;;11.57;100.00;102049.31;5064274;28;20033;-66
2022/06/28 01:54:10;;;;;;;14.48;9.63;;;;;;;11.56;100.00;102047.59;5047093;28;20819;-68
2022/06/28 01:56:36;;;;;;;14.48;9.93;;;;;;;11.70;100.00;102048.69;5030310;28;20032;-68
2022/06/28 01:59:09;;;;;;;18.20;10.90;;;;;;;11.51;100.00;102054.94;5047649;28;20033;-66
2022/06/28 02:01:46;;;;;;;16.60;10.25;;;;;;;11.50;100.00;102047.88;5031180;28;20140;-67
2022/06/28 02:04:18;;;;;;;12.63;9.73;;;;;;;11.47;100.00;102049.81;5064045;28;20174;-67
2022/06/28 02:06:46;;;;;;;11.10;8.45;;;;;;;11.39;100.00;102053.69;5035116;28;20036;-67
2022/06/28 02:09:11;;;;;;;12.77;8.80;;;;;;;11.40;100.00;102058.13;5033233;28;20129;-67
2022/06/28 02:11:42;;;;;;;14.95;10.50;;;;;;;11.24;100.00;102058.91;5034324;28;20048;-67
2022/06/28 02:14:09;;;;;;;12.57;9.75;;;;;;;11.32;100.00;102060.28;5033694;28;20033;-66
2022/06/28 02:16:35;;;;;;;12.93;10.13;;;;;;;11.33;100.00;102058.47;5053230;28;20048;-67
2022/06/28 02:19:01;;;;;;;13.73;9.23;;;;;;;11.27;100.00;102059.63;5067479;28;20112;-66
2022/06/28 02:21:27;;;;;;;16.40;10.43;;;;;;;11.40;100.00;102063.47;5018250;28;20324;-66
2022/06/28 02:23:53;;;;;;;16.40;11.15;;;;;;;11.34;100.00;102065.53;5069081;28;20038;-66
2022/06/28 02:26:19;;;;;;;15.38;11.73;;;;;;;11.27;100.00;102066.78;5030597;28;20048;-66
2022/06/28 02:28:45;;;;;;;24.75;12.40;;;;;;;11.37;100.00;102073.44;5033958;28;20033;-66
2022/06/28 02:31:15;;;;;;;15.23;10.68;;;;;;;11.34;100.00;102078.91;5013846;28;20919;-67
2022/06/28 02:33:42;;;;;;;16.42;11.77;;;;;;;11.37;100.00;102073.44;5014473;28;20179;-67
2022/06/28 02:41:38;;;;;;;17.77;12.45;;;;;;;11.25;100.00;102079.34;5032175;28;20083;-66
2022/06/28 02:44:04;;;;;;;18.98;13.10;;;;;;;11.29;100.00;102078.25;5032173;28;20103;-66
2022/06/28 02:46:30;;;;;;;17.50;11.75;;;;;;;11.29;100.00;102079.09;5032830;28;20415;-67
2022/06/28 02:48:55;;;;;;;16.90;10.77;;;;;;;11.18;100.00;102080.56;5015037;28;20029;-66
2022/06/28 02:51:21;;;;;;;16.67;12.50;;;;;;;11.23;100.00;102082.06;5013865;28;20848;-67
2022/06/28 02:53:48;;;;;;;18.25;13.48;;;;;;;11.05;100.00;102090.94;5030323;28;20072;-66
2022/06/28 02:56:13;;;;;;;17.98;12.77;;;;;;;11.09;100.00;102095.19;5030940;28;20144;-67
2022/06/28 02:58:39;;;;;;;22.33;13.68;;;;;;;11.11;100.00;102094.19;5032368;28;20095;-66
2022/06/28 03:01:04;;;;;;;24.08;15.73;;;;;;;11.22;100.00;102091.03;5013580;28;20052;-67
2022/06/28 03:03:30;;;;;;;20.73;13.85;;;;;;;11.27;100.00;102098.81;5013511;28;20041;-67
2022/06/28 03:05:56;;;;;;;19.35;13.90;;;;;;;11.24;100.00;102099.81;5031671;28;20033;-67
2022/06/28 03:08:22;;;;;;;23.33;13.77;;;;;;;11.09;100.00;102104.09;5030585;28;20114;-66
2022/06/28 03:10:47;;;;;;;17.67;12.55;;;;;;;11.19;100.00;102109.84;5013017;28;20171;-67
2022/06/28 03:13:13;;;;;;;15.85;11.73;;;;;;;11.15;100.00;102100.28;5013434;28;20132;-67
2022/06/28 03:15:38;;;;;;;17.17;12.70;;;;;;;11.24;100.00;102109.63;5030893;28;20041;-66
2022/06/28 03:18:04;;;;;;;18.38;13.10;;;;;;;11.23;100.00;102116.78;5030216;28;20048;-66
2022/06/28 03:20:29;;;;;;;18.80;12.82;;;;;;;11.25;100.00;102114.06;5013083;28;20037;-66
2022/06/28 03:22:56;;;;;;;19.05;13.32;;;;;;;11.15;100.00;102098.47;5030475;28;20040;-67
2022/06/28 03:25:21;;;;;;;18.17;12.73;;;;;;;11.07;100.00;102095.25;5031487;28;20033;-67
2022/06/28 03:27:49;;;;;;;17.30;12.05;;;;;;;11.12;100.00;102106.59;5062715;28;20055;-66
2022/06/28 03:30:15;;;;;;;18.38;12.20;;;;;;;11.15;100.00;102111.81;5051825;28;20143;-67
2022/06/28 03:32:43;;;;;;;18.88;13.07;;;;;;;11.24;100.00;102112.31;5038210;28;20051;-67
2022/06/28 03:35:10;;;;;;;14.65;11.25;;;;;;;11.32;100.00;102111.03;5064816;28;20068;-66
2022/06/28 03:37:36;;;;;;;16.92;11.70;;;;;;;11.31;100.00;102119.13;5051141;28;20041;-66
2022/06/28 03:40:05;;;;;;;14.98;11.05;;;;;;;11.40;100.00;102119.56;5015412;28;20138;-66
2022/06/28 03:42:33;;;;;;;12.52;8.43;;;;;;;11.43;100.00;102123.88;5033331;28;20067;-67
2022/06/28 03:44:58;;;;;;;18.40;11.48;;;;;;;11.56;100.00;102127.72;5033074;28;20547;-66
2022/06/28 03:47:24;;;;;;;19.10;12.52;;;;;;;11.68;100.00;102128.94;5032673;28;20032;-66
2022/06/28 03:50:09;;;;;;;15.77;11.50;;;;;;;11.73;100.00;102126.06;5050323;28;20048;-66
2022/06/28 03:52:52;;;;;;;20.77;13.20;;;;;;;11.74;100.00;102128.63;5050234;28;20101;-66
2022/06/28 03:55:48;;;;;;;18.08;12.32;;;;;;;11.93;100.00;102129.53;5032022;28;20570;-66
2022/06/28 03:58:14;;;;;;;21.10;13.43;;;;;;;12.00;100.00;102130.13;5064761;28;20036;-66
2022/06/28 04:00:39;;;;;;;19.65;12.70;;;;;;;11.96;100.00;102130.34;5049287;28;20036;-66
2022/06/28 04:03:05;;;;;;;18.08;12.25;;;;;;;12.09;100.00;102135.00;5031356;28;20058;-66
2022/06/28 04:05:38;;;;;;;19.90;11.98;;;;;;;12.08;100.00;102129.72;5049802;28;20036;-66
2022/06/28 04:08:04;;;;;;;18.88;12.43;;;;;;;12.14;100.00;102132.09;5050031;28;20049;-66
2022/06/28 04:10:40;;;;;;;23.35;14.15;;;;;;;12.09;100.00;102139.47;5017802;28;20451;-66
2022/06/28 04:13:12;;;;;;;;;;;;;;;12.14;100.00;102143.66;5031937;28;20055;-66
2022/06/28 04:15:38;;;;;;;19.98;12.75;;;;;;;12.31;100.00;102140.16;5065429;28;19920;-66
2022/06/28 04:18:07;;;;;;;22.27;12.93;;;;;;;12.27;100.00;102132.38;5031253;28;20064;-66
2022/06/28 04:21:03;;;;;;;22.20;14.40;;;;;;;12.44;100.00;102145.75;5021061;28;20161;-66
2022/06/28 04:23:28;;;;;;;18.92;13.43;;;;;;;12.53;100.00;102134.59;5030409;28;20032;-66
2022/06/28 04:25:55;;;;;;;25.55;13.85;;;;;;;12.59;100.00;102142.31;5030679;28;20028;-66
2022/06/28 04:28:30;;;;;;;18.00;13.43;;;;;;;12.64;100.00;102134.03;5063872;28;20033;-66
2022/06/28 04:31:04;;;;;;;20.92;14.63;;;;;;;12.66;100.00;102143.75;5030068;28;20036;-66
2022/06/28 04:33:30;;;;;;;23.77;15.57;;;;;;;12.67;100.00;102139.25;5047131;28;20139;-66
2022/06/28 04:35:56;;;;;;;20.77;13.48;;;;;;;12.77;100.00;102134.28;5063547;28;20030;-66
2022/06/28 04:38:23;;;;;;;21.73;14.23;;;;;;;12.83;100.00;102139.31;5030464;28;20041;-65
2022/06/28 04:41:02;;;;;;;29.15;16.42;;;;;;;12.91;100.00;102134.44;5049545;28;20033;-65
2022/06/28 04:43:46;;;;;;;22.85;15.02;;;;;;;13.03;100.00;102132.91;5049518;28;20042;-66
2022/06/28 04:46:17;;;;;;;23.80;15.15;;;;;;;12.96;100.00;102133.25;5029470;28;20036;-66
2022/06/28 04:48:45;;;;;;;26.00;16.50;;;;;;;13.01;100.00;102135.69;5030077;28;20094;-66
2022/06/28 04:51:11;;;;;;;26.23;16.08;;;;;;;13.16;100.00;102134.00;5062553;28;20608;-66
2022/06/28 04:53:40;;;;;;;27.63;17.30;;;;;;;13.16;100.00;102132.19;5064540;28;20134;-66
2022/06/28 04:56:07;;;;;;;22.83;15.93;;;;;;;14.09;100.00;102139.56;5054306;28;20051;-67
2022/06/28 04:58:33;;;;;;;22.10;14.95;;;;;;;16.48;92.61;102139.00;5031389;28;20029;-67
2022/06/28 05:00:59;;;;;;;20.33;13.45;;;;;;;17.23;88.23;102120.38;5064190;28;20110;-67
2022/06/28 05:03:24;;;;;;;17.83;12.40;;;;;;;18.66;80.71;102116.06;5049400;28;20821;-67
2022/06/28 05:06:11;;;;;;;16.35;10.20;;;;;;;19.87;75.66;102128.97;5041606;28;20802;-67
2022/06/28 05:08:36;;;;;;;13.65;10.05;;;;;;;20.33;72.35;102127.00;5030147;28;20031;-67
2022/06/28 05:11:03;;;;;;;13.65;10.02;;;;;;;20.11;72.80;102123.38;5062490;28;20048;-67
2022/06/28 05:13:40;;;;;;;18.85;9.32;;;;;;;21.16;68.58;102115.34;5041543;28;20129;-66
2022/06/28 05:16:09;;;;;;;12.93;8.95;;;;;;;20.90;69.39;102118.50;5029483;28;20044;-67
2022/06/28 05:18:35;;;;;;;16.55;8.77;;;;;;;20.93;69.35;102115.53;5049871;28;20036;-67
2022/06/28 05:21:03;;;;;;;11.52;7.97;;;;;;;20.97;68.36;102112.53;5035636;28;20032;-66
2022/06/28 05:23:28;;;;;;;13.73;7.35;;;;;;;20.96;69.52;102111.66;5063463;28;20067;-67
2022/06/28 05:26:13;;;;;;;12.18;7.95;;;;;;;20.81;68.17;102113.84;5046577;28;20213;-67
2022/06/28 05:28:39;;;;;;;11.30;7.35;;;;;;;21.07;68.36;102116.16;5029605;28;20039;-67
2022/06/28 05:31:05;;;;;;;10.82;7.53;;;;;;;20.82;69.38;102112.84;5047138;28;20039;-67
2022/06/28 05:33:31;;;;;;;9.88;7.60;;;;;;;20.84;69.01;102120.88;5028824;28;20036;-67
2022/06/28 05:35:56;;;;;;;13.40;8.13;;;;;;;21.03;69.00;102115.53;5046733;28;20449;-67
2022/06/28 05:38:22;;;;;;;12.50;7.70;;;;;;;21.13;67.37;102111.03;5029416;28;20393;-67
2022/06/28 05:40:47;;;;;;;9.52;6.70;;;;;;;20.71;68.08;102114.78;5048121;28;20114;-67
2022/06/28 05:43:13;;;;;;;8.43;6.65;;;;;;;21.13;66.83;102112.88;5062716;28;20048;-67
2022/06/28 05:45:38;;;;;;;13.15;7.05;;;;;;;20.97;68.59;102101.69;5030640;28;20043;-67
2022/06/28 05:48:04;;;;;;;9.32;6.25;;;;;;;21.57;66.69;102108.13;5047986;28;20033;-67
2022/06/28 05:50:30;;;;;;;7.85;6.07;;;;;;;21.62;65.71;102105.84;5030697;28;20139;-67
2022/06/28 05:52:55;;;;;;;9.80;5.80;;;;;;;21.70;66.03;102106.88;5048571;28;20518;-66
2022/06/28 05:55:21;;;;;;;12.52;6.97;;;;;;;21.54;65.63;102111.97;5013091;28;20442;-67
2022/06/28 05:57:46;;;;;;;9.80;5.78;;;;;;;21.43;67.09;102104.78;5030933;28;20024;-67
2022/06/28 06:00:13;;;;;;;10.70;5.80;;;;;;;22.57;61.51;102100.69;5047946;28;20984;-68
2022/06/28 06:02:42;;;;;;;14.55;5.90;;;;;;;22.19;65.07;102105.16;5014345;28;20036;-67
2022/06/28 06:05:08;;;;;;;12.68;6.07;;;;;;;22.05;62.96;102105.53;5029361;28;20048;-67
2022/06/28 06:07:34;;;;;;;13.93;5.13;;;;;;;21.76;64.15;102105.47;5029940;28;20101;-68
2022/06/28 06:10:02;;;;;;;8.00;5.13;;;;;;;21.27;63.47;102107.09;5030715;28;20059;-67
2022/06/28 06:12:28;;;;;;;16.45;5.10;;;;;;;21.48;65.62;102106.22;5029677;28;20177;-67
2022/06/28 06:14:54;;;;;;;9.27;5.43;;;;;;;21.83;65.73;102111.19;5047494;28;20214;-67
2022/06/28 06:17:20;;;;;;;8.52;4.75;;;;;;;21.49;65.09;102114.25;5028794;28;20044;-67
2022/06/28 06:19:45;;;;;;;12.85;5.07;;;;;;;22.45;64.36;102113.59;5048780;28;20648;-67
2022/06/28 06:22:12;;;;;;;9.55;4.50;;;;;;;21.78;62.23;102119.75;5047341;28;20099;-67
2022/06/28 06:24:38;;;;;;;10.68;4.70;;;;;;;22.07;61.74;102113.53;5047536;28;20048;-68
2022/06/28 06:27:14;;;;;;;11.60;4.93;;;;;;;21.98;62.93;102118.78;5047076;28;20048;-67
2022/06/28 06:29:41;;;;;;;11.32;4.82;;;;;;;21.54;64.26;102122.00;5029957;28;20032;-67
2022/06/28 06:32:13;;;;;;;9.68;4.40;;;;;;;20.85;65.03;102133.44;5044805;28;20047;-68
2022/06/28 06:34:57;;;;;;;8.55;4.68;;;;;;;20.65;65.92;102138.72;5047361;28;21224;-68
2022/06/28 06:37:22;;;;;;;14.77;5.40;;;;;;;21.76;65.09;102129.91;5030098;28;20041;-68
2022/06/28 06:39:48;;;;;;;16.63;5.90;;;;;;;22.37;62.51;102137.03;5014273;28;20043;-67
2022/06/28 06:42:13;;;;;;;12.45;4.82;;;;;;;22.25;62.12;102127.31;5028900;28;20043;-67
2022/06/28 06:44:45;;;;;;;9.95;4.30;;;;;;;22.31;64.36;102129.47;5048254;28;20099;-68
2022/06/28 06:47:10;;;;;;;10.02;4.40;;;;;;;22.72;62.14;102140.03;5028789;28;20042;-66
2022/06/28 06:49:36;;;;;;;13.32;4.47;;;;;;;23.11;59.58;102142.72;5048067;28;20044;-67
2022/06/28 06:52:02;;;;;;;12.23;4.88;;;;;;;22.86;60.92;102143.31;5048888;28;20040;-67
2022/06/28 06:54:28;;;;;;;14.07;5.05;;;;;;;23.44;60.15;102143.16;5032821;28;20032;-67
2022/06/28 06:56:53;;;;;;;12.30;4.72;;;;;;;22.54;63.57;102149.94;5050473;28;20044;-67
2022/06/28 06:59:19;;;;;;;7.60;4.20;;;;;;;21.91;61.96;102141.22;5049726;28;20044;-67
2022/06/28 07:01:45;;;;;;;11.13;4.43;;;;;;;23.64;61.68;102143.97;5031389;28;20781;-66
2022/06/28 07:04:15;;;;;;;14.75;5.25;;;;;;;23.04;59.83;102148.88;5030492;28;20481;-67
2022/06/28 07:06:42;;;;;;;12.15;4.45;;;;;;;23.14;57.84;102161.44;5031632;28;20410;-67
2022/06/28 07:09:08;;;;;;;12.07;4.22;;;;;;;23.00;59.56;102157.34;5048850;28;20032;-67
2022/06/28 07:11:34;;;;;;;10.40;5.03;;;;;;;23.36;59.92;102162.97;5031708;28;20616;-67
2022/06/28 07:14:00;;;;;;;13.60;4.80;;;;;;;23.99;61.04;102160.41;5050047;28;20229;-67
2022/06/28 07:16:27;;;;;;;12.45;4.88;;;;;;;22.96;58.72;102164.09;5064475;28;20094;-67
2022/06/28 07:18:52;;;;;;;18.90;5.43;;;;;;;22.23;61.63;102157.31;5033667;28;21021;-68
2022/06/28 07:21:18;;;;;;;13.02;5.00;;;;;;;23.74;58.41;102164.69;5032114;28;20821;-67
2022/06/28 07:23:43;;;;;;;10.38;4.60;;;;;;;23.47;59.39;102157.34;5033683;28;20036;-67
2022/06/28 07:26:10;;;;;;;13.80;4.93;;;;;;;24.14;56.85;102158.00;5065397;28;20047;-67
2022/06/28 07:28:36;;;;;;;12.32;5.28;;;;;;;23.24;57.19;102161.44;5052119;28;20040;-70
2022/06/28 07:31:02;;;;;;;12.27;4.00;;;;;;;22.47;58.44;102163.22;5031768;28;20872;-70
2022/06/28 07:33:28;;;;;;;16.17;5.32;;;;;;;23.57;58.05;102153.72;5031701;28;20546;-68
2022/06/28 07:35:53;;;;;;;10.82;5.38;;;;;;;23.90;58.75;102160.50;5065871;28;20039;-67
2022/06/28 07:38:19;;;;;;;11.80;4.35;;;;;;;23.20;60.24;102165.47;5050449;28;20036;-67
2022/06/28 07:41:17;;;;;;;7.35;3.15;;;;;;;23.42;57.34;102156.94;5049084;28;20040;-68
2022/06/28 07:43:42;;;;;;;8.30;3.55;;;;;;;23.24;55.16;102161.44;5051590;28;20052;-67
2022/06/28 07:46:12;;;;;;;12.00;3.80;;;;;;;23.07;57.04;102154.91;5033665;28;20060;-67
2022/06/28 07:48:38;;;;;;;7.63;3.28;;;;;;;23.46;54.25;102150.19;5033829;28;20115;-67
2022/06/28 07:53:51;;;;;;;15.90;4.57;;;;;;;23.22;53.62;102149.84;5032944;28;21387;-66
2022/06/28 07:56:40;;;;;;;7.60;3.33;;;;;;;23.62;56.59;102149.53;5044053;28;20067;-67
2022/06/28 07:59:07;;;;;;;9.57;3.72;;;;;;;23.87;54.28;102152.59;5037511;28;20037;-67
2022/06/28 08:01:33;;;;;;;9.90;3.72;;;;;;;23.25;60.05;102157.72;5031560;28;20036;-67
2022/06/28 08:04:02;;;;;;;11.15;3.17;;;;;;;24.28;53.73;102151.19;5026719;28;20043;-67
2022/06/28 08:06:28;;;;;;;10.00;2.50;;;;;;;23.83;54.32;102151.19;5031910;28;20036;-67
2022/06/28 08:08:57;;;;;;;8.35;2.55;;;;;;;24.54;50.84;102154.00;5032488;28;20039;-67
2022/06/28 08:11:23;;;;;;;12.27;3.38;;;;;;;23.20;53.04;102141.84;5030596;28;20780;-66
2022/06/28 08:13:50;;;;;;;7.43;2.30;;;;;;;23.55;54.25;102142.13;5064244;28;20063;-67
2022/06/28 08:16:16;;;;;;;10.25;3.10;;;;;;;24.02;53.00;102151.94;5046018;28;20039;-67
2022/06/28 08:18:42;;;;;;;10.82;2.63;;;;;;;23.40;52.50;102141.78;5029295;28;20040;-67
2022/06/28 08:21:09;;;;;;;10.35;3.40;;;;;;;24.00;51.71;102150.38;5062105;28;20120;-67
2022/06/28 08:23:34;;;;;;;9.75;3.42;;;;;;;23.24;53.17;102145.97;5062820;28;20048;-67
2022/06/28 08:26:00;;;;;;;9.95;3.45;;;;;;;23.55;56.95;102142.13;5062702;28;20028;-67
2022/06/28 08:28:26;;;;;;;13.20;4.38;;;;;;;23.80;54.72;102141.47;5025247;28;20453;-67
2022/06/28 08:30:52;;;;;;;8.98;4.10;;;;;;;23.22;53.82;102136.22;5029689;28;20127;-67
2022/06/28 08:33:17;;;;;;;9.88;2.78;;;;;;;23.63;52.72;102134.06;5046589;28;20139;-67
2022/06/28 08:35:43;;;;;;;8.75;2.97;;;;;;;23.43;53.02;102131.41;5024231;28;20781;-67
2022/06/28 08:38:08;;;;;;;4.03;2.40;;;;;;;23.89;48.68;102135.06;5027012;28;20040;-67
2022/06/28 08:40:34;;;;;;;8.95;3.67;;;;;;;23.69;51.72;102131.59;5046828;28;20035;-67
2022/06/28 08:43:00;;;;;;;7.50;2.90;;;;;;;23.90;53.57;102139.53;5046839;28;20041;-67
2022/06/28 08:45:27;;;;;;;5.95;3.10;;;;;;;24.50;51.49;102128.94;5028837;28;20392;-68
2022/06/28 08:47:55;;;;;;;8.80;2.97;;;;;;;24.32;50.90;102130.78;5047571;28;20051;-67
2022/06/28 08:50:33;;;;;;;10.02;4.15;;;;;;;24.17;50.75;102127.72;5046883;28;20108;-67
2022/06/28 08:53:04;;;;;;;10.57;3.60;;;;;;;23.94;53.07;102130.03;5043820;28;20138;-66
2022/06/28 08:55:31;;;;;;;4.90;2.63;;;;;;;24.46;52.07;102123.97;5046426;28;20458;-68
2022/06/28 08:57:59;;;;;;;15.07;3.55;;;;;;;22.86;49.55;102121.56;5046978;28;20041;-68
2022/06/28 09:00:24;;;;;;;7.90;2.83;;;;;;;24.71;51.33;102117.69;5041990;28;20772;-67
2022/06/28 09:02:52;;;;;;;9.57;4.45;;;;;;;23.41;53.98;102114.38;5040991;28;20035;-67
2022/06/28 09:05:20;;;;;;;8.73;4.20;;;;;;;23.76;53.40;102124.56;5060472;28;20744;-67
2022/06/28 09:07:45;;;;;;;10.55;3.50;;;;;;;24.09;54.23;102118.59;5046452;28;20037;-67
2022/06/28 09:10:12;;;;;;;6.38;2.58;;;;;;;23.18;47.77;102119.34;5045638;28;20135;-67
2022/06/28 09:12:38;;;;;;;9.95;3.10;;;;;;;23.49;49.88;102119.06;5046909;28;20032;-67
2022/06/28 09:15:04;;;;;;;6.97;2.45;;;;;;;23.87;52.00;102109.00;5046500;28;20051;-67
2022/06/28 09:17:31;;;;;;;5.45;2.97;;;;;;;23.23;47.90;102106.13;5047399;28;20043;-67
2022/06/28 09:20:09;;;;;;;6.20;3.40;;;;;;;23.06;50.71;102109.66;5046387;28;20819;-67
2022/06/28 09:22:38;;;;;;;8.20;2.60;;;;;;;23.57;52.57;102108.28;5047814;28;20046;-67
2022/06/28 09:25:08;;;;;;;9.38;2.63;;;;;;;24.10;49.76;102102.13;5028390;28;20109;-67
2022/06/28 09:27:38;;;;;;;4.57;2.88;;;;;;;23.39;51.53;102102.75;5033774;28;20053;-67
2022/06/28 09:30:07;;;;;;;6.53;2.58;;;;;;;23.25;49.46;102098.69;5026455;28;20041;-67
2022/06/28 09:32:34;;;;;;;5.20;2.55;;;;;;;23.96;53.61;102099.91;5043216;28;20867;-67
2022/06/28 09:35:17;;;;;;;9.10;2.92;;;;;;;24.12;53.97;102096.50;5025130;28;20442;-67
2022/06/28 09:37:48;;;;;;;4.55;2.15;;;;;;;23.97;48.89;102097.03;5027878;28;20033;-67
2022/06/28 09:40:19;;;;;;;8.75;2.53;;;;;;;23.88;50.39;102091.66;5025854;28;20041;-67
2022/06/28 09:42:47;;;;;;;5.88;2.78;;;;;;;23.63;50.56;102106.81;5026800;28;20033;-67
2022/06/28 09:45:16;;;;;;;10.25;3.42;;;;;;;22.65;52.21;102097.25;5025766;28;20869;-67
2022/06/28 09:47:50;;;;;;;9.43;2.97;;;;;;;23.44;47.75;102102.31;5025591;28;20043;-67
2022/06/28 09:50:21;;;;;;;5.35;3.03;;;;;;;23.26;52.67;102086.78;5025555;28;20048;-67
2022/06/28 09:52:47;;;;;;;6.50;3.00;;;;;;;22.89;50.30;102085.91;5009925;28;20033;-66
2022/06/28 09:55:15;;;;;;;6.45;3.45;;;;;;;23.26;52.52;102085.94;5042240;28;20052;-66
2022/06/28 09:57:47;;;;;;;9.70;3.25;;;;;;;22.68;50.80;102086.91;5028401;28;20045;-67
2022/06/28 10:00:14;;;;;;;5.43;2.63;;;;;;;23.13;51.31;102069.94;5027309;28;20571;-67
2022/06/28 10:02:42;;;;;;;6.03;2.63;;;;;;;23.59;53.06;102079.03;5028496;28;20119;-67
2022/06/28 10:05:09;;;;;;;6.18;2.85;;;;;;;23.83;50.51;102072.19;5009946;28;20064;-67
2022/06/28 10:07:35;;;;;;;8.82;2.47;;;;;;;23.71;51.64;102074.28;5028213;28;20040;-67
2022/06/28 10:10:05;;;;;;;11.38;2.75;;;;;;;23.49;46.32;102079.09;5028269;28;20290;-67
2022/06/28 10:15:21;;;;;;;6.30;1.90;;;;;;;23.68;48.11;102075.41;5026829;28;20048;-67
2022/06/28 10:18:09;;;;;;;6.75;2.20;;;;;;;23.96;50.25;102070.78;5027228;28;20040;-66
2022/06/28 10:20:37;;;;;;;10.32;2.17;;;;;;;24.01;50.54;102071.19;5027784;28;20568;-67
2022/06/28 10:23:33;;;;;;;6.70;2.08;;;;;;;24.13;52.82;102073.69;5025691;28;20090;-66
2022/06/28 10:26:14;;;;;;;6.15;2.28;;;;;;;24.06;49.54;102065.28;5020153;28;20037;-67
2022/06/28 10:28:45;;;;;;;5.05;1.60;;;;;;;23.66;46.63;102066.56;5066590;28;20071;-67
2022/06/28 10:31:32;;;;;;;5.27;1.80;;;;;;;23.40;47.57;102068.25;5050539;28;20040;-67
2022/06/28 10:34:00;;;;;;;4.43;1.70;;;;;;;23.97;50.43;102064.34;5050119;28;20067;-67
2022/06/28 10:36:31;;;;;;;5.78;1.40;;;;;;;23.85;47.36;102062.84;5081345;27;20968;-67
2022/06/28 10:39:08;;;;;;;3.80;1.27;;;;;;;24.42;47.08;102057.94;5045243;28;20043;-66
2022/06/28 10:42:04;;;;;;;7.78;1.45;;;;;;;23.76;45.23;102056.44;5051571;28;20411;-67
2022/06/28 10:44:32;;;;;;;3.03;1.30;;;;;;;23.34;45.74;102049.78;5041167;28;20537;-66
2022/06/28 10:47:00;;;;;;;3.85;1.20;;;;;;;23.37;45.82;102050.34;5048309;28;20051;-66
2022/06/28 10:49:46;;;;;;;5.20;1.85;;;;;;;23.84;45.93;102052.09;5051078;28;20129;-67
2022/06/28 10:52:22;;;;;;;6.38;1.35;;;;;;;23.74;46.81;102044.84;5048738;28;20129;-67
2022/06/28 10:54:56;;;;;;;10.48;1.83;;;;;;;23.78;47.18;102050.84;5052179;28;20043;-67
2022/06/28 10:57:35;;;;;;;4.57;1.00;;;;;;;24.11;47.09;102049.31;5066027;28;20700;-66
2022/06/28 11:00:08;;;;;;;4.53;1.27;;;;;;;24.15;44.71;102036.22;5050778;28;20032;-67
2022/06/28 11:02:51;;;;;;;6.57;1.58;;;;;;;24.16;44.68;102041.53;5042566;28;20068;-66
2022/06/28 11:05:23;;;;;;;2.20;1.25;;;;;;;24.02;45.71;102042.91;5049744;28;21613;-67
2022/06/28 11:08:30;;;;;;;4.70;1.33;;;;;;;24.36;47.04;102023.16;5046313;28;20819;-68
2022/06/28 11:11:05;;;;;;;5.65;1.17;;;;;;;24.07;45.29;102031.56;5039792;28;20871;-67
2022/06/28 11:13:31;;;;;;;3.08;1.25;;;;;;;23.79;49.26;102022.59;5065110;28;20737;-67
2022/06/28 11:15:57;;;;;;;4.88;1.10;;;;;;;24.04;48.77;102021.81;5049427;28;20035;-67
2022/06/28 11:18:26;;;;;;;7.18;1.52;;;;;;;24.22;48.44;102010.03;5048091;28;20247;-66
2022/06/28 11:20:53;;;;;;;4.95;1.35;;;;;;;24.25;49.46;102007.88;5065904;28;20068;-67
2022/06/28 11:23:26;;;;;;;2.83;0.90;;;;;;;24.27;49.01;102010.44;5070557;28;20494;-68
2022/06/28 11:28:59;;;;;;;3.20;1.20;;;;;;;24.60;51.05;101999.75;5071732;28;20048;-66
2022/06/28 11:31:28;;;;;;;3.38;1.70;;;;;;;24.26;45.75;102001.41;5070126;28;20032;-67
2022/06/28 11:33:53;;;;;;;3.47;1.35;;;;;;;24.30;48.96;102007.41;5070698;28;20051;-67
2022/06/28 11:36:27;;;;;;;4.68;1.85;;;;;;;24.65;49.65;102000.13;5070583;28;20047;-67
2022/06/28 11:38:52;;;;;;;3.78;1.10;;;;;;;24.32;47.75;101999.91;5071671;28;20060;-67